LFKC Airport Information

Runway Information
Runway 18 Length 7579 ft width 131 ft
Elevation 63 ft Threshold 0 ft Heading 179
Runway 36 Length 7579 ft Width 131 ft
Elevation 198 ft Threshold 656 ft Heading 359
Airport Frequencies
Type ATIS Name CALVI ATIS Frequency 131.175 MHZ
Type GND Name CALVI GND Frequency 121.7 MHZ
Type TWR Name CALVI TWR Frequency 120.8 MHZ
Airport Navaids
Type NDB Name Calvi Frequency 375 KHZ
Airport Weather Information & NOTAM
ADDS - METARS form results

(2205 UTC 14 April 2021)
Data provider http://aviationweather.gov/metar/data/
 
METAR text: LFKC 142200Z AUTO 20004KT CAVOK 07/05 Q1020
Conditions at: LFKC (CALVI/ST. CATHER, FR) observed 2200 UTC 14 April 2021
Temperature: 7.0°C (45°F)
Dewpoint: 5.0°C (41°F) [RH = 87%]
Pressure (altimeter): 30.12 inches Hg (1020.0 mb)
Winds: from the SSW (200 degrees) at 5 MPH (4 knots; 2.1 m/s)
Visibility: 6 or more miles (10+ km)
Ceiling: ceiling and visibility are OK
Clouds: unknown
Weather: no significant weather observed at this time

METAR text: LFKC 142130Z AUTO 20005KT 9999 FEW084 07/06 Q1020
Conditions at: LFKC (CALVI/ST. CATHER, FR) observed 2130 UTC 14 April 2021
Temperature: 7.0°C (45°F)
Dewpoint: 6.0°C (43°F) [RH = 93%]
Pressure (altimeter): 30.12 inches Hg (1020.0 mb)
Winds: from the SSW (200 degrees) at 6 MPH (5 knots; 2.6 m/s)
Visibility: 6 or more miles (10+ km)
Ceiling: at least 12,000 feet AGL
Clouds: few clouds at 8400 feet AGL
Weather: no significant weather observed at this time

Forecast for: LFKC (CALVI/ST. CATHER, FR)
Text: TAF LFKC 141400Z 1415/1515 35006KT 9999 SCT030 TX16/1512Z TN05/1505Z
Forecast period: 1500 to 1700 UTC 14 April 2021
Forecast type: FROM: standard forecast or significant change
Winds: from the N (350 degrees) at 7 MPH (6 knots; 3.1 m/s)
Visibility: 6 or more miles (10+ km)
Ceiling: at least 12,000 feet AGL
Clouds: scattered clouds at 3000 feet AGL
Weather: no significant weather forecast for this period
Text: TEMPO 1415/1417 FEW030TCU BKN060
Forecast period: 1500 to 1700 UTC 14 April 2021
Forecast type: TEMPORARY: The following changes expected for less than half the time period
Visibility: missing
Ceiling: 6000 feet AGL
Clouds: few clouds at 3000 feet AGL
broken clouds at 6000 feet AGL
Weather: no significant weather forecast for this period
Text: BECMG 1417/1420 18005KT
Forecast period: 1700 UTC 14 April 2021 to 1500 UTC 15 April 2021
Forecast type: BECOMING: Conditions expected to become as follows by 2000 UTC 14 April 2021
Winds: from the S (180 degrees) at 6 MPH (5 knots; 2.6 m/s)
Visibility: 6 or more miles (10+ km)
Ceiling: at least 12,000 feet AGL
Clouds: scattered clouds at 3000 feet AGL
Weather: no significant weather forecast for this period